Terminal Aerodrome Forecast
Issued by NWS Omaha/Valley, NE

Home | Current Version | Previous Version | Text Only | Print | Product List | Glossary On
Versions: 1 2 3 4 5 6 7 8 9 10 11 12 13 14 15 16 17 18 19 20 21 22 23 24 25 26 27 28 29 30 31 32 33 34 35 36 37
000
FTUS43 KOAX 310520
TAFOMA
TAF
KOMA 310520Z 3106/0106 15006KT P6SM SKC
     FM311000 15010KT P6SM SCT150 WS020/21040KT
     FM311500 17015G22KT P6SM SCT050
     FM312300 16012KT 6SM -TSRA BR OVC050CB
      TEMPO 0102/0106 3SM TSRA BR OVC025CB=

USA.gov is the U.S. government's official web portal to all federal, state and local government web resources and services.